Time;durP1;ratioP1;P1;durP2;ratioP2;P2;SDS_P1;SDS_P2;PMS_P1;PMS_P2;Temp;Humidity;BMP_temperature;BMP_pressure;BME280_temperature;BME280_humidity;BME280_pressure;Samples;Min_cycle;Max_cycle;Signal;HPM_P1;HPM_P2
2021/11/18 00:01:32;;;;;;;25.65;4.65;;;7.30;88.00;;;;;;4836565;29;20060;-75
2021/11/18 00:04:08;;;;;;;25.42;3.88;;;7.30;87.90;;;;;;4836869;29;20527;-73
2021/11/18 00:06:36;;;;;;;31.45;4.22;;;7.30;87.90;;;;;;4840724;29;20069;-74
2021/11/18 00:09:04;;;;;;;29.70;4.35;;;7.30;87.90;;;;;;4823786;29;20051;-75
2021/11/18 00:11:32;;;;;;;29.00;4.80;;;7.20;87.90;;;;;;4804890;29;20062;-75
2021/11/18 00:13:59;;;;;;;39.53;4.80;;;7.10;88.00;;;;;;4822248;29;20493;-74
2021/11/18 00:16:27;;;;;;;24.88;4.70;;;7.00;88.10;;;;;;4821382;29;20054;-74
2021/11/18 00:18:55;;;;;;;31.17;4.00;;;6.90;88.30;;;;;;4819093;29;20055;-75
2021/11/18 00:21:29;;;;;;;21.95;3.63;;;6.80;88.50;;;;;;4822006;29;20062;-75
2021/11/18 00:23:59;;;;;;;24.63;3.60;;;6.80;88.60;;;;;;4822895;29;20055;-74
2021/11/18 00:26:29;;;;;;;20.95;4.18;;;6.70;88.80;;;;;;4823190;29;20058;-74
2021/11/18 00:28:59;;;;;;;22.38;3.90;;;6.60;88.90;;;;;;4822929;29;20061;-74
2021/11/18 00:31:30;;;;;;;28.85;4.05;;;6.60;88.90;;;;;;4822851;29;20065;-75
2021/11/18 00:33:58;;;;;;;22.17;3.78;;;6.60;89.00;;;;;;4822281;29;20493;-74
2021/11/18 00:36:26;;;;;;;24.60;3.40;;;6.60;89.10;;;;;;4820306;29;20076;-75
2021/11/18 00:38:54;;;;;;;25.42;3.85;;;6.60;89.20;;;;;;4821495;29;20058;-74
2021/11/18 00:41:22;;;;;;;30.73;3.90;;;6.60;89.30;;;;;;4821974;29;20481;-75
2021/11/18 00:43:51;;;;;;;29.70;4.53;;;6.70;89.30;;;;;;4823194;29;20058;-74
2021/11/18 00:46:22;;;;;;;21.08;4.18;;;6.70;89.30;;;;;;4829774;29;20474;-74
2021/11/18 00:48:54;;;;;;;32.85;4.22;;;6.70;89.40;;;;;;4816190;29;20057;-74
2021/11/18 00:51:22;;;;;;;22.65;3.60;;;6.80;89.40;;;;;;4821533;29;20054;-75
2021/11/18 00:53:57;;;;;;;22.42;4.13;;;6.80;89.40;;;;;;4816975;29;20482;-75
2021/11/18 00:56:25;;;;;;;32.83;4.40;;;7.00;89.30;;;;;;4823335;29;20058;-74
2021/11/18 00:58:55;;;;;;;35.17;4.30;;;7.10;89.30;;;;;;4842069;29;20061;-75
2021/11/18 01:01:29;;;;;;;18.52;3.53;;;7.20;89.40;;;;;;4818662;29;20073;-75
2021/11/18 01:04:02;;;;;;;24.60;3.58;;;7.30;89.30;;;;;;4815995;29;20054;-75
2021/11/18 01:06:30;;;;;;;23.98;3.28;;;7.40;89.00;;;;;;4821665;29;20055;-75
2021/11/18 01:08:58;;;;;;;24.70;3.47;;;7.60;88.90;;;;;;4822757;29;20047;-75
2021/11/18 01:11:28;;;;;;;24.80;3.78;;;7.60;88.80;;;;;;4822808;29;20193;-74
2021/11/18 01:14:00;;;;;;;;;;;7.70;88.70;;;;;;4805521;29;20047;-74
2021/11/18 01:16:32;;;;;;;30.38;4.28;;;7.80;88.60;;;;;;4819529;29;19947;-74
2021/11/18 01:19:01;;;;;;;20.80;3.88;;;7.80;88.50;;;;;;4818181;29;20050;-74
2021/11/18 01:21:33;;;;;;;34.28;3.95;;;7.80;88.40;;;;;;4822104;29;20058;-76
2021/11/18 01:24:02;;;;;;;26.70;3.90;;;7.80;88.40;;;;;;4820334;29;20066;-75
2021/11/18 01:26:46;;;;;;;26.15;3.90;;;7.80;88.50;;;;;;4819394;29;20053;-74
2021/11/18 01:29:13;;;;;;;19.92;3.72;;;7.90;88.50;;;;;;4822978;29;20054;-74
2021/11/18 01:31:43;;;;;;;21.25;2.83;;;8.00;88.50;;;;;;4807626;29;20054;-75
2021/11/18 01:34:11;;;;;;;30.27;4.32;;;8.00;88.40;;;;;;4825791;29;20071;-75
2021/11/18 01:36:42;;;;;;;19.70;3.30;;;8.10;88.30;;;;;;4841188;29;20054;-74
2021/11/18 01:39:11;;;;;;;24.48;3.60;;;8.20;88.30;;;;;;4831626;29;20044;-74
2021/11/18 01:41:42;;;;;;;24.05;3.35;;;8.20;88.30;;;;;;4818502;29;20065;-74
2021/11/18 01:44:25;;;;;;;21.83;3.60;;;8.30;88.20;;;;;;4818922;29;20054;-74
2021/11/18 01:46:55;;;;;;;20.27;3.58;;;8.30;88.10;;;;;;4839032;29;20050;-73
2021/11/18 01:49:26;;;;;;;23.13;2.92;;;8.40;88.00;;;;;;4819934;29;20061;-74
2021/11/18 01:51:57;;;;;;;22.00;3.17;;;8.40;88.10;;;;;;4823278;29;20054;-74
2021/11/18 01:54:30;;;;;;;28.77;3.28;;;8.50;88.20;;;;;;4824002;29;20051;-74
2021/11/18 01:56:59;;;;;;;30.55;3.53;;;8.60;88.00;;;;;;4824365;29;20058;-74
2021/11/18 01:59:34;;;;;;;23.27;3.50;;;8.70;88.00;;;;;;4823674;29;20055;-74
2021/11/18 02:02:29;;;;;;;17.63;2.72;;;8.80;88.00;;;;;;4817480;29;20058;-74
2021/11/18 02:05:21;;;;;;;26.15;3.63;;;8.90;87.80;;;;;;4818059;29;20051;-74
2021/11/18 02:07:54;;;;;;;14.98;2.80;;;8.90;87.60;;;;;;4824733;29;20054;-75
2021/11/18 02:10:44;;;;;;;14.40;3.00;;;9.00;87.60;;;;;;4825732;29;20053;-75
2021/11/18 02:13:15;;;;;;;20.80;2.60;;;9.10;87.50;;;;;;4828066;29;20053;-74
2021/11/18 02:15:48;;;;;;;20.50;2.88;;;9.10;87.40;;;;;;4827708;29;20050;-74
2021/11/18 02:18:21;;;;;;;10.90;1.80;;;9.10;87.30;;;;;;4824949;29;20054;-75
2021/11/18 02:20:54;;;;;;;13.77;2.08;;;9.20;87.40;;;;;;4815713;29;20046;-75
2021/11/18 02:23:25;;;;;;;16.08;2.10;;;9.30;87.50;;;;;;4819701;29;20050;-75
2021/11/18 02:25:55;;;;;;;;;;;9.20;87.50;;;;;;4847013;29;20042;-75
2021/11/18 02:28:26;;;;;;;14.55;1.77;;;9.30;87.50;;;;;;4824411;29;20012;-75
2021/11/18 02:30:55;;;;;;;15.85;2.28;;;9.30;87.50;;;;;;4802925;29;20059;-75
2021/11/18 02:33:23;;;;;;;13.07;2.28;;;9.30;87.40;;;;;;4823558;29;20511;-75
2021/11/18 02:35:51;;;;;;;13.57;1.85;;;9.40;87.50;;;;;;4820440;29;20051;-74
2021/11/18 02:38:19;;;;;;;16.40;2.55;;;9.50;87.60;;;;;;4812901;29;20409;-75
2021/11/18 02:40:48;;;;;;;18.42;2.78;;;9.60;87.40;;;;;;4839987;29;20446;-75
2021/11/18 02:43:17;;;;;;;13.20;2.10;;;9.70;87.20;;;;;;4823560;29;20117;-75
2021/11/18 02:45:49;;;;;;;15.80;1.80;;;9.70;87.10;;;;;;4841473;29;20058;-74
2021/11/18 02:48:18;;;;;;;11.00;2.10;;;9.70;87.10;;;;;;4829664;29;20054;-75
2021/11/18 02:50:53;;;;;;;21.67;2.60;;;9.80;87.00;;;;;;4819193;29;20516;-75
2021/11/18 02:53:24;;;;;;;9.30;1.67;;;9.80;86.90;;;;;;4816483;29;20049;-74
2021/11/18 02:55:53;;;;;;;16.00;1.88;;;9.80;86.80;;;;;;4808566;29;20049;-75
2021/11/18 02:58:23;;;;;;;8.60;1.65;;;9.90;86.70;;;;;;4823266;29;20050;-75
2021/11/18 03:00:54;;;;;;;10.80;1.65;;;9.90;86.70;;;;;;4838451;29;20047;-74
2021/11/18 03:03:24;;;;;;;5.35;1.33;;;9.90;86.70;;;;;;4823364;29;20505;-75
2021/11/18 03:05:53;;;;;;;17.50;2.03;;;10.00;86.60;;;;;;4824327;29;20061;-74
2021/11/18 03:08:22;;;;;;;7.82;1.05;;;10.00;86.60;;;;;;4817537;29;20058;-75
2021/11/18 03:10:53;;;;;;;9.30;1.63;;;10.00;86.70;;;;;;4820956;29;20050;-75
2021/11/18 03:13:22;;;;;;;8.73;1.75;;;10.00;86.60;;;;;;4823006;29;20108;-75
2021/11/18 03:15:50;;;;;;;13.05;2.13;;;10.00;86.70;;;;;;4838919;29;20489;-74
2021/11/18 03:18:18;;;;;;;10.93;1.40;;;10.00;86.80;;;;;;4816887;29;20061;-74
2021/11/18 03:20:49;;;;;;;13.80;1.90;;;9.90;87.00;;;;;;4803198;29;20528;-73
2021/11/18 03:23:18;;;;;;;6.03;0.90;;;9.80;87.20;;;;;;4820831;29;20574;-73
2021/11/18 03:25:48;;;;;;;11.18;1.67;;;9.80;87.40;;;;;;4838488;29;20062;-73
2021/11/18 03:28:24;;;;;;;10.52;1.33;;;9.80;87.60;;;;;;4822631;29;20047;-73
2021/11/18 03:30:54;;;;;;;8.95;1.60;;;9.80;87.70;;;;;;4837992;29;20501;-73
2021/11/18 03:33:26;;;;;;;8.27;1.30;;;9.80;87.80;;;;;;4822261;29;20409;-73
2021/11/18 03:35:55;;;;;;;15.10;2.05;;;9.80;87.90;;;;;;4824109;29;20054;-73
2021/11/18 03:38:26;;;;;;;15.63;1.77;;;9.70;88.00;;;;;;4810586;29;20440;-73
2021/11/18 03:41:26;;;;;;;5.75;0.85;;;9.70;88.20;;;;;;4811489;29;20085;-74
2021/11/18 03:43:58;;;;;;;10.25;1.58;;;9.70;88.40;;;;;;4823075;29;20064;-73
2021/11/18 03:46:30;;;;;;;10.57;1.60;;;9.70;88.40;;;;;;4822389;29;20046;-73
2021/11/18 03:48:58;;;;;;;7.88;1.63;;;9.70;88.50;;;;;;4806595;29;20532;-74
2021/11/18 03:51:28;;;;;;;8.27;1.30;;;9.70;88.50;;;;;;4826506;29;20054;-74
2021/11/18 03:53:57;;;;;;;10.38;1.17;;;9.70;88.70;;;;;;4838901;29;20053;-74
2021/11/18 03:56:28;;;;;;;11.85;1.40;;;9.70;88.70;;;;;;4822919;29;20053;-74
2021/11/18 03:58:57;;;;;;;9.48;1.75;;;9.70;88.60;;;;;;4822272;29;20438;-74
2021/11/18 04:01:24;;;;;;;10.10;1.38;;;9.70;88.70;;;;;;4823087;29;20046;-74
2021/11/18 04:03:54;;;;;;;5.63;1.10;;;9.70;88.90;;;;;;4822278;29;20505;-74
2021/11/18 04:06:23;;;;;;;5.80;1.42;;;9.70;89.10;;;;;;4822211;29;20046;-74
2021/11/18 04:08:59;;;;;;;8.00;1.13;;;9.70;89.10;;;;;;4822368;29;20050;-74
2021/11/18 04:11:27;;;;;;;7.82;1.17;;;9.70;89.20;;;;;;4807156;29;20042;-74
2021/11/18 04:13:59;;;;;;;7.60;1.15;;;9.70;89.10;;;;;;4826249;29;20394;-74
2021/11/18 04:16:28;;;;;;;16.70;1.40;;;9.60;89.30;;;;;;4828701;29;20061;-74
2021/11/18 04:18:57;;;;;;;8.10;0.90;;;9.60;89.40;;;;;;4825194;29;20057;-74
2021/11/18 04:21:31;;;;;;;9.80;2.10;;;9.60;89.40;;;;;;4822343;29;20053;-74
2021/11/18 04:24:05;;;;;;;4.82;0.80;;;9.70;89.50;;;;;;4807584;29;20054;-74
2021/11/18 04:26:35;;;;;;;7.18;0.90;;;9.80;89.40;;;;;;4804404;29;20058;-74
2021/11/18 04:29:03;;;;;;;7.70;1.10;;;9.80;89.30;;;;;;4822236;29;20057;-74
2021/11/18 04:31:31;;;;;;;4.05;0.68;;;9.90;89.10;;;;;;4840845;29;20042;-74
2021/11/18 04:34:00;;;;;;;4.85;0.80;;;9.90;89.10;;;;;;4821159;29;20051;-74
2021/11/18 04:36:29;;;;;;;10.13;1.10;;;9.90;88.90;;;;;;4821099;29;20050;-74
2021/11/18 04:38:57;;;;;;;2.95;0.57;;;9.90;88.80;;;;;;4819811;29;20054;-74
2021/11/18 04:41:27;;;;;;;3.78;0.73;;;9.90;88.90;;;;;;4836575;29;20397;-75
2021/11/18 04:43:57;;;;;;;8.40;1.10;;;9.80;88.90;;;;;;4821693;29;20054;-74
2021/11/18 04:46:25;;;;;;;4.05;0.95;;;9.80;89.00;;;;;;4818237;29;20069;-74
2021/11/18 04:48:55;;;;;;;6.00;0.85;;;9.80;89.20;;;;;;4821092;29;20042;-74
2021/11/18 04:51:25;;;;;;;8.40;0.95;;;9.70;89.30;;;;;;4823089;29;20401;-72
2021/11/18 04:53:53;;;;;;;7.32;1.85;;;9.60;89.40;;;;;;4835524;29;20058;-75
2021/11/18 04:56:26;;;;;;;6.50;2.00;;;9.60;89.60;;;;;;4786997;29;20384;-73
2021/11/18 04:58:56;;;;;;;11.57;3.78;;;9.50;89.80;;;;;;4800781;29;20065;-74
2021/11/18 05:01:26;;;;;;;13.18;5.15;;;9.50;89.80;;;;;;4821916;29;20047;-74
2021/11/18 05:03:55;;;;;;;8.13;2.75;;;9.40;89.90;;;;;;4820641;29;20062;-74
2021/11/18 05:06:24;;;;;;;7.90;2.10;;;9.30;90.20;;;;;;4824583;29;20381;-74
2021/11/18 05:08:52;;;;;;;6.20;1.80;;;9.30;90.50;;;;;;4825751;29;20058;-74
2021/11/18 05:11:21;;;;;;;7.00;1.52;;;9.30;90.50;;;;;;4840028;29;20401;-73
2021/11/18 05:13:48;;;;;;;6.32;1.10;;;9.30;90.60;;;;;;4840368;29;20054;-73
2021/11/18 05:16:17;;;;;;;6.47;2.42;;;9.40;90.90;;;;;;4825120;29;20046;-73
2021/11/18 05:18:46;;;;;;;5.15;0.85;;;9.40;91.00;;;;;;4824137;29;20043;-73
2021/11/18 05:21:17;;;;;;;4.07;0.88;;;9.50;91.00;;;;;;4828032;29;20413;-73
2021/11/18 05:23:46;;;;;;;8.35;1.30;;;9.40;90.90;;;;;;4823633;29;20062;-74
2021/11/18 05:26:16;;;;;;;4.63;0.90;;;9.50;91.00;;;;;;4823490;29;20512;-73
2021/11/18 05:28:45;;;;;;;4.82;1.15;;;9.50;91.10;;;;;;4825405;29;20057;-75
2021/11/18 05:31:16;;;;;;;9.98;1.30;;;9.50;91.10;;;;;;4809772;29;20046;-74
2021/11/18 05:33:58;;;;;;;5.55;1.13;;;9.50;91.10;;;;;;4800153;29;20494;-72
2021/11/18 05:36:33;;;;;;;7.32;1.40;;;9.50;91.20;;;;;;4819437;29;20042;-75
2021/11/18 05:39:04;;;;;;;6.95;1.63;;;9.50;91.20;;;;;;4824568;29;20058;-75
2021/11/18 05:41:36;;;;;;;10.13;1.80;;;9.60;91.20;;;;;;4823254;29;20043;-75
2021/11/18 05:44:05;;;;;;;4.97;1.70;;;9.60;91.20;;;;;;4824298;29;20052;-75
2021/11/18 05:46:35;;;;;;;6.45;1.50;;;9.70;91.20;;;;;;4823061;29;20054;-72
2021/11/18 05:49:06;;;;;;;9.90;1.25;;;9.60;91.20;;;;;;4824794;29;20046;-75
2021/11/18 05:51:36;;;;;;;3.58;0.90;;;9.70;91.20;;;;;;4837932;29;20489;-73
2021/11/18 05:54:08;;;;;;;3.10;0.88;;;9.70;91.30;;;;;;4813342;29;20053;-74
2021/11/18 05:56:38;;;;;;;7.75;1.27;;;9.80;91.20;;;;;;4814843;29;20481;-74
2021/11/18 05:59:08;;;;;;;3.08;1.05;;;9.80;91.20;;;;;;4824183;29;20233;-74
2021/11/18 06:01:37;;;;;;;6.88;1.52;;;9.80;91.20;;;;;;4813691;29;20054;-74
2021/11/18 06:04:06;;;;;;;5.60;0.93;;;9.80;91.30;;;;;;4818788;29;20058;-74
2021/11/18 06:06:56;;;;;;;6.78;1.38;;;9.80;91.40;;;;;;4824404;29;20054;-74
2021/11/18 06:09:24;;;;;;;6.10;1.20;;;9.80;91.40;;;;;;4808487;29;20053;-74
2021/11/18 06:11:52;;;;;;;5.47;1.00;;;9.80;91.50;;;;;;4794356;29;20433;-74
2021/11/18 06:14:20;;;;;;;8.43;1.17;;;9.80;91.40;;;;;;4823777;29;20556;-74
2021/11/18 06:16:52;;;;;;;7.72;1.05;;;9.80;91.40;;;;;;4823354;29;20046;-74
2021/11/18 06:19:20;;;;;;;7.43;1.30;;;9.80;91.50;;;;;;4823016;29;20422;-74
2021/11/18 06:21:53;;;;;;;9.40;1.25;;;9.80;91.60;;;;;;4808367;29;20050;-74
2021/11/18 06:24:25;;;;;;;6.05;0.90;;;9.80;91.60;;;;;;4824098;29;20050;-73
2021/11/18 06:26:57;;;;;;;9.20;1.10;;;9.80;91.60;;;;;;4828100;29;20073;-74
2021/11/18 06:29:31;;;;;;;7.18;1.08;;;9.80;91.70;;;;;;4819248;29;20054;-74
2021/11/18 06:32:03;;;;;;;10.23;1.40;;;9.80;91.70;;;;;;4791693;29;20059;-73
2021/11/18 06:34:32;;;;;;;6.63;1.00;;;9.80;91.70;;;;;;4822036;29;20429;-73
2021/11/18 06:37:00;;;;;;;6.75;1.13;;;9.80;91.70;;;;;;4806365;29;20047;-73
2021/11/18 06:39:35;;;;;;;14.30;2.10;;;9.80;91.70;;;;;;4808018;29;20536;-74
2021/11/18 06:42:08;;;;;;;7.80;1.33;;;9.80;91.70;;;;;;4819526;29;20046;-74
2021/11/18 06:44:39;;;;;;;5.85;1.80;;;9.80;91.80;;;;;;4813956;29;20452;-74
2021/11/18 06:47:07;;;;;;;6.80;1.30;;;9.80;91.80;;;;;;4821490;29;20073;-74
2021/11/18 06:49:38;;;;;;;5.32;1.20;;;9.80;91.90;;;;;;4811137;29;20512;-74
2021/11/18 06:52:08;;;;;;;11.02;2.33;;;9.70;92.10;;;;;;4838824;29;20046;-74
2021/11/18 06:54:36;;;;;;;11.93;2.53;;;9.70;92.20;;;;;;4838167;29;20050;-74
2021/11/18 06:57:06;;;;;;;6.63;1.60;;;9.70;92.10;;;;;;4815195;29;20493;-74
2021/11/18 06:59:35;;;;;;;7.85;1.30;;;9.70;92.10;;;;;;4827820;29;20054;-74
2021/11/18 07:02:02;;;;;;;3.95;0.90;;;9.70;92.20;;;;;;4828732;29;20053;-74
2021/11/18 07:04:32;;;;;;;6.07;1.40;;;9.70;92.40;;;;;;4817957;29;20054;-74
2021/11/18 07:07:00;;;;;;;7.70;1.40;;;9.70;92.50;;;;;;4830502;29;20076;-75
2021/11/18 07:09:29;;;;;;;6.97;1.45;;;9.60;92.50;;;;;;4822371;29;20425;-74
2021/11/18 07:12:23;;;;;;;4.93;0.90;;;9.60;92.60;;;;;;4817154;29;20062;-75
2021/11/18 07:14:52;;;;;;;4.88;1.25;;;9.70;92.70;;;;;;4822192;29;20051;-74
2021/11/18 07:17:21;;;;;;;11.05;2.83;;;9.70;92.60;;;;;;4825506;29;20046;-74
2021/11/18 07:19:50;;;;;;;4.50;1.75;;;9.70;92.60;;;;;;4829009;29;20401;-75
2021/11/18 07:22:19;;;;;;;6.40;2.40;;;9.60;92.60;;;;;;4818356;29;20050;-75
2021/11/18 07:25:07;;;;;;;7.95;1.58;;;9.60;92.60;;;;;;4818059;29;20053;-75
2021/11/18 07:27:35;;;;;;;5.65;1.00;;;9.60;92.60;;;;;;4832449;29;20047;-75
2021/11/18 07:30:04;;;;;;;8.77;1.67;;;9.60;92.90;;;;;;4807737;29;20505;-75
2021/11/18 07:32:32;;;;;;;5.50;1.40;;;9.60;92.90;;;;;;4804298;29;20222;-75
2021/11/18 07:35:11;;;;;;;7.68;1.52;;;9.60;92.80;;;;;;4817855;29;20046;-75
2021/11/18 07:37:39;;;;;;;4.13;1.17;;;9.50;92.80;;;;;;4826505;29;20046;-75
2021/11/18 07:40:11;;;;;;;4.25;1.70;;;9.50;92.80;;;;;;4811149;29;20061;-75
2021/11/18 07:42:39;;;;;;;4.80;0.88;;;9.40;92.90;;;;;;4815582;29;20047;-75
2021/11/18 07:45:26;;;;;;;7.50;1.63;;;9.30;93.00;;;;;;4818764;29;20081;-75
2021/11/18 07:48:13;;;;;;;8.52;2.33;;;9.30;93.00;;;;;;4811703;29;20066;-75
2021/11/18 07:50:42;;;;;;;11.77;2.00;;;9.20;93.10;;;;;;4818927;29;20057;-75
2021/11/18 07:53:12;;;;;;;6.85;2.28;;;9.20;93.20;;;;;;4822763;29;20524;-75
2021/11/18 07:55:43;;;;;;;12.27;3.17;;;9.10;93.20;;;;;;4835265;29;20061;-75
2021/11/18 07:58:11;;;;;;;9.05;4.30;;;9.10;93.20;;;;;;4810001;29;20056;-74
2021/11/18 08:00:39;;;;;;;13.23;2.20;;;9.00;93.40;;;;;;4834254;29;20050;-74
2021/11/18 08:03:24;;;;;;;6.30;2.15;;;9.00;93.50;;;;;;4805714;29;20058;-73
2021/11/18 08:06:21;;;;;;;8.00;1.30;;;9.00;93.50;;;;;;4800657;29;20070;-75
2021/11/18 08:08:59;;;;;;;8.50;1.42;;;9.10;93.60;;;;;;4810041;29;20053;-74
2021/11/18 08:11:46;;;;;;;3.63;1.25;;;9.20;93.60;;;;;;4830245;29;20046;-76
2021/11/18 08:14:15;;;;;;;4.78;1.27;;;9.20;93.50;;;;;;4840781;29;20053;-76
2021/11/18 08:16:46;;;;;;;8.20;1.50;;;9.30;93.50;;;;;;4820462;29;20043;-75
2021/11/18 08:19:15;;;;;;;8.73;1.70;;;9.30;93.50;;;;;;4840185;29;20050;-76
2021/11/18 08:21:45;;;;;;;10.52;3.20;;;9.40;93.50;;;;;;4830237;29;20053;-75
2021/11/18 08:24:18;;;;;;;7.13;2.55;;;9.50;93.50;;;;;;4813607;29;20408;-76
2021/11/18 08:26:46;;;;;;;9.70;3.13;;;9.50;93.40;;;;;;4805967;29;20053;-76
2021/11/18 08:29:19;;;;;;;8.00;2.80;;;9.60;93.30;;;;;;4807249;29;20405;-75
2021/11/18 08:31:49;;;;;;;8.05;2.40;;;9.70;93.20;;;;;;4822025;29;20053;-75
2021/11/18 08:34:49;;;;;;;6.28;2.17;;;9.80;93.10;;;;;;4811605;29;20062;-76
2021/11/18 08:37:19;;;;;;;6.95;2.20;;;9.80;93.00;;;;;;4821662;29;20072;-75
2021/11/18 08:39:48;;;;;;;8.55;2.13;;;9.90;93.00;;;;;;4822129;29;20046;-74
2021/11/18 08:42:19;;;;;;;10.38;2.28;;;10.10;93.00;;;;;;4821271;29;20061;-75
2021/11/18 08:44:53;;;;;;;9.18;1.73;;;10.20;92.90;;;;;;4821777;29;20058;-75
2021/11/18 08:47:24;;;;;;;5.75;1.02;;;10.20;92.80;;;;;;4821677;29;20062;-74
2021/11/18 08:49:57;;;;;;;3.42;0.93;;;10.30;92.70;;;;;;4821379;29;20061;-75
2021/11/18 08:52:28;;;;;;;10.75;1.48;;;10.50;92.60;;;;;;4807191;29;20058;-75
2021/11/18 08:54:59;;;;;;;;;;;10.60;92.50;;;;;;4807127;29;20055;-75
2021/11/18 08:57:27;;;;;;;7.53;1.10;;;10.70;92.40;;;;;;4807513;29;19924;-75
2021/11/18 09:00:20;;;;;;;4.78;1.35;;;10.80;92.20;;;;;;4807136;29;20058;-75
2021/11/18 09:02:57;;;;;;;5.30;1.52;;;10.80;92.10;;;;;;4822397;29;20062;-75
2021/11/18 09:05:30;;;;;;;7.70;1.55;;;10.90;91.90;;;;;;4807468;29;20055;-75
2021/11/18 09:08:00;;;;;;;6.32;1.60;;;11.00;91.80;;;;;;4823385;29;20042;-75
2021/11/18 09:10:31;;;;;;;7.82;1.23;;;11.10;91.80;;;;;;4812074;29;20057;-75
2021/11/18 09:12:59;;;;;;;7.05;1.33;;;11.20;91.70;;;;;;4839497;29;20049;-75
2021/11/18 09:15:28;;;;;;;7.28;1.33;;;11.30;91.60;;;;;;4833042;29;20058;-74
2021/11/18 09:17:58;;;;;;;6.00;0.98;;;11.30;91.40;;;;;;4826160;29;20046;-75
2021/11/18 09:20:40;;;;;;;5.95;1.20;;;11.30;91.30;;;;;;4811031;29;20066;-75
2021/11/18 09:23:11;;;;;;;8.57;2.30;;;11.40;91.10;;;;;;4807674;29;20067;-75
2021/11/18 09:25:44;;;;;;;6.85;2.35;;;11.40;91.00;;;;;;4807429;29;20051;-75
2021/11/18 09:28:14;;;;;;;;;;;11.40;90.90;;;;;;4807336;29;20050;-74
2021/11/18 09:30:57;;;;;;;10.65;2.72;;;11.40;90.80;;;;;;4815675;29;19925;-74
2021/11/18 09:33:26;;;;;;;10.05;1.38;;;11.40;90.90;;;;;;4822511;29;20053;-75
2021/11/18 09:35:58;;;;;;;8.55;1.90;;;11.50;90.80;;;;;;4822305;29;20057;-75
2021/11/18 09:38:30;;;;;;;6.93;1.48;;;11.40;90.70;;;;;;4823541;29;20489;-75
2021/11/18 09:41:12;;;;;;;8.65;1.15;;;11.50;90.80;;;;;;4841715;29;20058;-76
2021/11/18 09:43:53;;;;;;;7.13;1.52;;;11.50;90.70;;;;;;4824125;29;20065;-74
2021/11/18 09:46:55;;;;;;;8.70;1.77;;;11.50;90.80;;;;;;4827585;29;20063;-74
2021/11/18 09:49:43;;;;;;;9.15;1.95;;;11.60;90.80;;;;;;4826223;29;20042;-75
2021/11/18 09:52:36;;;;;;;12.77;1.55;;;11.60;90.70;;;;;;4840176;29;20065;-74
2021/11/18 09:55:08;;;;;;;7.70;1.15;;;11.70;90.70;;;;;;4824955;29;20050;-75
2021/11/18 09:58:06;;;;;;;2.95;0.95;;;11.70;90.60;;;;;;4825254;29;20065;-75
2021/11/18 10:00:40;;;;;;;8.75;1.42;;;11.80;90.50;;;;;;4824060;29;20046;-75
2021/11/18 10:03:29;;;;;;;10.73;1.45;;;11.80;90.40;;;;;;4809320;29;20058;-75
2021/11/18 10:06:24;;;;;;;7.00;1.02;;;11.90;90.40;;;;;;4809919;29;20054;-75
2021/11/18 10:08:52;;;;;;;9.25;1.33;;;11.90;90.30;;;;;;4824627;29;20520;-75
2021/11/18 10:11:37;;;;;;;8.00;1.63;;;11.90;90.20;;;;;;4809697;29;20050;-74
2021/11/18 10:14:29;;;;;;;5.30;1.40;;;11.90;90.10;;;;;;4809774;29;20497;-74
2021/11/18 10:17:29;;;;;;;6.15;1.60;;;12.00;90.20;;;;;;4818392;29;20051;-74
2021/11/18 10:20:24;;;;;;;8.27;1.50;;;12.00;90.10;;;;;;4811680;29;20075;-74
2021/11/18 10:22:59;;;;;;;9.63;1.90;;;12.00;90.00;;;;;;4833897;29;20050;-74
2021/11/18 10:25:40;;;;;;;7.10;1.50;;;11.90;89.90;;;;;;4810101;29;20069;-74
2021/11/18 10:28:22;;;;;;;7.97;1.40;;;11.90;89.70;;;;;;4824599;29;20061;-74
2021/11/18 10:31:06;;;;;;;11.05;1.75;;;11.80;89.50;;;;;;4809317;29;20061;-75
2021/11/18 10:33:52;;;;;;;22.05;1.95;;;11.80;89.50;;;;;;4832868;29;20527;-75
2021/11/18 10:36:44;;;;;;;7.88;1.58;;;11.80;89.50;;;;;;4844119;29;20053;-75
2021/11/18 10:39:38;;;;;;;6.88;1.60;;;11.80;89.40;;;;;;4826894;29;20444;-75
2021/11/18 10:42:13;;;;;;;8.98;1.70;;;11.80;89.30;;;;;;4825609;29;20057;-74
2021/11/18 10:44:57;;;;;;;8.20;1.40;;;11.80;89.30;;;;;;4825249;29;20069;-76
2021/11/18 10:47:51;;;;;;;11.68;1.70;;;11.80;89.30;;;;;;4824619;29;20061;-76
2021/11/18 10:50:32;;;;;;;;;;;11.70;89.30;;;;;;4814275;29;20059;-75
2021/11/18 10:53:02;;;;;;;11.50;1.83;;;11.70;89.30;;;;;;4797373;29;19935;-75
2021/11/18 10:55:40;;;;;;;11.60;1.70;;;11.70;89.30;;;;;;4805843;29;20058;-77
2021/11/18 10:58:11;;;;;;;9.00;1.40;;;11.70;89.30;;;;;;4805329;29;20059;-76
2021/11/18 11:00:41;;;;;;;9.73;1.75;;;11.70;89.30;;;;;;4806843;29;20493;-76
2021/11/18 11:03:33;;;;;;;10.73;1.70;;;11.70;89.30;;;;;;4806152;29;20055;-75
2021/11/18 11:06:15;;;;;;;8.10;1.10;;;11.70;89.30;;;;;;4807985;29;20051;-75
2021/11/18 11:08:46;;;;;;;6.97;1.33;;;11.60;89.20;;;;;;4832770;29;20054;-75
2021/11/18 11:11:39;;;;;;;4.90;1.13;;;11.60;89.20;;;;;;4825765;29;20058;-77
2021/11/18 11:14:27;;;;;;;6.10;1.40;;;11.50;89.20;;;;;;4825028;29;20050;-75
2021/11/18 11:17:35;;;;;;;8.68;1.63;;;11.50;89.20;;;;;;4826759;29;20057;-75
2021/11/18 11:20:02;;;;;;;7.07;1.42;;;11.50;89.30;;;;;;4829676;29;20047;-77
2021/11/18 11:22:32;;;;;;;9.35;1.77;;;11.50;89.30;;;;;;4824598;29;20062;-76
2021/11/18 11:25:06;;;;;;;11.30;1.98;;;11.40;89.30;;;;;;4824563;29;20390;-75
2021/11/18 11:28:07;;;;;;;7.10;1.67;;;11.40;89.30;;;;;;4823399;29;20074;-76
2021/11/18 11:30:43;;;;;;;5.97;1.65;;;11.40;89.30;;;;;;4824491;29;20370;-75
2021/11/18 11:33:22;;;;;;;14.23;1.95;;;11.40;89.40;;;;;;4824819;29;20065;-77
2021/11/18 11:36:19;;;;;;;7.80;1.63;;;11.40;89.50;;;;;;4825401;29;20061;-76
2021/11/18 11:38:59;;;;;;;10.80;2.13;;;11.40;89.60;;;;;;4808081;29;20062;-76
2021/11/18 11:41:58;;;;;;;12.93;2.50;;;11.50;89.60;;;;;;4838436;29;20069;-75
2021/11/18 11:44:29;;;;;;;9.88;2.20;;;11.50;89.50;;;;;;4826307;29;20063;-75
2021/11/18 11:47:24;;;;;;;5.88;1.80;;;11.50;89.50;;;;;;4842550;29;20239;-75
2021/11/18 11:50:03;;;;;;;11.50;2.17;;;11.50;89.40;;;;;;4832018;29;20053;-74
2021/11/18 11:52:43;;;;;;;8.00;2.67;;;11.50;89.40;;;;;;4822802;29;20062;-75
2021/11/18 11:55:46;;;;;;;11.70;2.97;;;11.50;89.40;;;;;;4824323;29;20494;-75
2021/11/18 11:58:34;;;;;;;8.95;2.13;;;11.60;89.40;;;;;;4824498;29;20050;-75
2021/11/18 12:01:10;;;;;;;11.15;1.92;;;11.60;89.40;;;;;;4817663;29;20055;-75
2021/11/18 12:04:02;;;;;;;10.25;1.77;;;11.70;89.30;;;;;;4823449;29;20062;-75
2021/11/18 12:06:41;;;;;;;8.52;2.03;;;11.70;89.20;;;;;;4823852;29;20069;-75
2021/11/18 12:09:17;;;;;;;8.75;1.92;;;11.70;89.20;;;;;;4823484;29;20065;-75
2021/11/18 12:11:50;;;;;;;8.70;2.15;;;11.80;89.30;;;;;;4824242;29;20528;-75
2021/11/18 12:14:26;;;;;;;9.80;2.30;;;11.80;89.30;;;;;;4823842;29;20069;-76
2021/11/18 12:17:09;;;;;;;16.05;2.88;;;11.80;89.30;;;;;;4823476;29;20058;-75
2021/11/18 12:19:46;;;;;;;35.93;3.80;;;11.80;89.20;;;;;;4807784;29;20049;-75
2021/11/18 12:22:35;;;;;;;40.83;4.10;;;12.00;89.20;;;;;;4807512;29;20442;-76
2021/11/18 12:25:23;;;;;;;12.13;2.53;;;12.00;89.10;;;;;;4822983;29;20054;-76
2021/11/18 12:28:03;;;;;;;31.23;3.33;;;12.00;89.10;;;;;;4823745;29;20413;-76
2021/11/18 12:30:36;;;;;;;22.38;2.60;;;12.00;89.10;;;;;;4823784;29;20038;-76
2021/11/18 12:33:23;;;;;;;11.05;2.78;;;12.10;89.10;;;;;;4823912;29;20066;-77
2021/11/18 12:36:09;;;;;;;9.57;2.45;;;12.00;89.20;;;;;;4842676;29;20517;-76
2021/11/18 12:38:58;;;;;;;14.43;2.50;;;12.10;89.30;;;;;;4824267;29;20065;-75
2021/11/18 12:42:01;;;;;;;12.27;2.83;;;12.10;89.30;;;;;;4824014;29;20062;-76
2021/11/18 12:44:49;;;;;;;13.55;2.47;;;12.10;89.30;;;;;;4823633;29;20051;-76
2021/11/18 12:47:21;;;;;;;15.30;2.97;;;12.20;89.30;;;;;;4822730;29;20068;-76
2021/11/18 12:49:52;;;;;;;6.37;1.87;;;12.20;89.30;;;;;;4824976;29;20058;-76
2021/11/18 12:52:33;;;;;;;9.65;1.60;;;12.30;89.30;;;;;;4824813;29;20409;-75
2021/11/18 12:55:14;;;;;;;8.18;1.67;;;12.30;89.30;;;;;;4823696;29;20058;-77
2021/11/18 12:57:52;;;;;;;7.47;1.67;;;12.30;89.30;;;;;;4808800;29;20493;-76
2021/11/18 13:00:43;;;;;;;7.70;1.98;;;12.40;89.30;;;;;;4824513;29;20071;-75
2021/11/18 13:03:13;;;;;;;10.75;1.95;;;12.50;89.20;;;;;;4823407;29;20050;-75
2021/11/18 13:05:49;;;;;;;5.95;1.42;;;12.50;89.20;;;;;;4823870;29;20058;-76
2021/11/18 13:08:39;;;;;;;6.10;1.23;;;12.60;89.10;;;;;;4823610;29;20061;-73
2021/11/18 13:11:25;;;;;;;9.77;1.58;;;12.70;89.00;;;;;;4824019;29;20165;-74
2021/11/18 13:14:13;;;;;;;10.32;1.60;;;12.80;89.00;;;;;;4823837;29;20382;-74
2021/11/18 13:16:47;;;;;;;9.20;1.70;;;12.80;88.90;;;;;;4809368;29;20054;-74
2021/11/18 13:19:25;;;;;;;6.03;1.50;;;12.80;88.90;;;;;;4827837;29;20061;-74
2021/11/18 13:22:16;;;;;;;4.55;1.20;;;12.90;88.90;;;;;;4823997;29;20054;-75
2021/11/18 13:25:11;;;;;;;7.28;1.45;;;13.10;88.70;;;;;;4823535;29;20058;-74
2021/11/18 13:27:50;;;;;;;2.47;1.10;;;13.30;88.60;;;;;;4826827;29;20058;-75
2021/11/18 13:30:58;;;;;;;8.10;1.35;;;13.30;88.30;;;;;;4826328;29;20053;-75